sensor_id;sensor_type;location;lat;lon;timestamp;pressure;altitude;pressure_sealevel;temperature;humidity
76337;BME280;65157;50.082;18.178;2023-02-01T00:02:11;98852.77;;;2.99;77.23
76337;BME280;65157;50.082;18.178;2023-02-01T00:04:37;98847.53;;;2.99;77.33
76337;BME280;65157;50.082;18.178;2023-02-01T00:07:04;98843.03;;;2.98;77.31
76337;BME280;65157;50.082;18.178;2023-02-01T00:09:30;98838.52;;;2.97;77.53
76337;BME280;65157;50.082;18.178;2023-02-01T00:11:57;98836.46;;;2.95;77.64
76337;BME280;65157;50.082;18.178;2023-02-01T00:14:25;98836.65;;;2.94;77.61
76337;BME280;65157;50.082;18.178;2023-02-01T00:16:52;98838.25;;;2.92;77.70
76337;BME280;65157;50.082;18.178;2023-02-01T00:19:19;98840.73;;;2.90;77.83
76337;BME280;65157;50.082;18.178;2023-02-01T00:21:45;98839.55;;;2.88;77.90
76337;BME280;65157;50.082;18.178;2023-02-01T00:24:12;98836.61;;;2.87;77.94
76337;BME280;65157;50.082;18.178;2023-02-01T00:26:41;98834.35;;;2.87;77.82
76337;BME280;65157;50.082;18.178;2023-02-01T00:29:17;98831.56;;;2.86;78.03
76337;BME280;65157;50.082;18.178;2023-02-01T00:31:44;98828.96;;;2.87;77.80
76337;BME280;65157;50.082;18.178;2023-02-01T00:34:14;98832.77;;;2.87;77.97
76337;BME280;65157;50.082;18.178;2023-02-01T00:36:42;98834.02;;;2.85;77.89
76337;BME280;65157;50.082;18.178;2023-02-01T00:39:11;98834.10;;;2.81;77.91
76337;BME280;65157;50.082;18.178;2023-02-01T00:41:38;98837.52;;;2.84;77.96
76337;BME280;65157;50.082;18.178;2023-02-01T00:44:05;98843.45;;;2.84;78.00
76337;BME280;65157;50.082;18.178;2023-02-01T00:46:31;98851.50;;;2.82;77.77
76337;BME280;65157;50.082;18.178;2023-02-01T00:48:58;98839.21;;;2.78;77.97
76337;BME280;65157;50.082;18.178;2023-02-01T00:51:27;98836.38;;;2.81;78.18
76337;BME280;65157;50.082;18.178;2023-02-01T00:53:54;98852.58;;;2.81;78.43
76337;BME280;65157;50.082;18.178;2023-02-01T00:56:21;98853.79;;;2.81;78.25
76337;BME280;65157;50.082;18.178;2023-02-01T00:58:48;98844.59;;;2.79;78.38
76337;BME280;65157;50.082;18.178;2023-02-01T01:01:18;98847.57;;;2.78;78.49
76337;BME280;65157;50.082;18.178;2023-02-01T01:03:50;98852.00;;;2.73;78.47
76337;BME280;65157;50.082;18.178;2023-02-01T01:06:21;98849.08;;;2.72;78.42
76337;BME280;65157;50.082;18.178;2023-02-01T01:08:51;98855.84;;;2.72;78.60
76337;BME280;65157;50.082;18.178;2023-02-01T01:11:28;98858.80;;;2.73;79.08
76337;BME280;65157;50.082;18.178;2023-02-01T01:13:57;98863.19;;;2.72;79.14
76337;BME280;65157;50.082;18.178;2023-02-01T01:16:26;98865.25;;;2.73;79.22
76337;BME280;65157;50.082;18.178;2023-02-01T01:18:53;98870.77;;;2.76;79.43
76337;BME280;65157;50.082;18.178;2023-02-01T01:21:21;98865.19;;;2.76;79.48
76337;BME280;65157;50.082;18.178;2023-02-01T01:23:48;98857.17;;;2.76;79.51
76337;BME280;65157;50.082;18.178;2023-02-01T01:26:20;98863.45;;;2.77;79.41
76337;BME280;65157;50.082;18.178;2023-02-01T01:28:47;98858.21;;;2.77;79.41
76337;BME280;65157;50.082;18.178;2023-02-01T01:31:16;98853.46;;;2.80;79.09
76337;BME280;65157;50.082;18.178;2023-02-01T01:33:43;98849.09;;;2.81;79.13
76337;BME280;65157;50.082;18.178;2023-02-01T01:36:11;98850.42;;;2.84;79.14
76337;BME280;65157;50.082;18.178;2023-02-01T01:38:41;98850.09;;;2.84;79.22
76337;BME280;65157;50.082;18.178;2023-02-01T01:41:12;98864.72;;;2.84;79.12
76337;BME280;65157;50.082;18.178;2023-02-01T01:46:54;98901.96;;;2.87;78.70
76337;BME280;65157;50.082;18.178;2023-02-01T01:49:23;98896.23;;;2.86;78.66
76337;BME280;65157;50.082;18.178;2023-02-01T01:52:01;98887.09;;;2.80;78.56
76337;BME280;65157;50.082;18.178;2023-02-01T01:54:32;98891.52;;;2.75;78.71
76337;BME280;65157;50.082;18.178;2023-02-01T01:57:14;98899.63;;;2.70;78.89
76337;BME280;65157;50.082;18.178;2023-02-01T01:59:48;98910.10;;;2.70;79.03
76337;BME280;65157;50.082;18.178;2023-02-01T02:02:16;98924.40;;;2.68;79.25
76337;BME280;65157;50.082;18.178;2023-02-01T02:04:44;98930.56;;;2.64;79.19
76337;BME280;65157;50.082;18.178;2023-02-01T02:07:17;98940.45;;;2.57;79.25
76337;BME280;65157;50.082;18.178;2023-02-01T02:09:45;98930.95;;;2.51;79.37
76337;BME280;65157;50.082;18.178;2023-02-01T02:12:12;98931.95;;;2.43;79.63
76337;BME280;65157;50.082;18.178;2023-02-01T02:14:39;98913.70;;;2.28;80.02
76337;BME280;65157;50.082;18.178;2023-02-01T02:35:01;98897.09;;;1.69;81.77
76337;BME280;65157;50.082;18.178;2023-02-01T02:42:53;98885.25;;;1.56;81.16
76337;BME280;65157;50.082;18.178;2023-02-01T02:46:02;98868.56;;;1.55;81.30
76337;BME280;65157;50.082;18.178;2023-02-01T02:48:58;98862.07;;;1.60;81.19
76337;BME280;65157;50.082;18.178;2023-02-01T02:51:45;98856.97;;;1.64;80.95
76337;BME280;65157;50.082;18.178;2023-02-01T02:54:35;98856.07;;;1.65;80.83
76337;BME280;65157;50.082;18.178;2023-02-01T02:57:16;98856.23;;;1.68;80.55
76337;BME280;65157;50.082;18.178;2023-02-01T03:00:07;98860.02;;;1.68;80.48
76337;BME280;65157;50.082;18.178;2023-02-01T03:02:54;98854.67;;;1.67;80.51
76337;BME280;65157;50.082;18.178;2023-02-01T03:05:43;98859.74;;;1.64;80.49
76337;BME280;65157;50.082;18.178;2023-02-01T03:08:19;98862.54;;;1.65;80.51
76337;BME280;65157;50.082;18.178;2023-02-01T03:11:06;98869.30;;;1.65;80.27
76337;BME280;65157;50.082;18.178;2023-02-01T03:13:43;98876.30;;;1.63;80.20
76337;BME280;65157;50.082;18.178;2023-02-01T03:16:34;98875.55;;;1.51;80.62
76337;BME280;65157;50.082;18.178;2023-02-01T03:19:12;98876.92;;;1.39;80.99
76337;BME280;65157;50.082;18.178;2023-02-01T03:21:43;98884.84;;;1.31;80.93
76337;BME280;65157;50.082;18.178;2023-02-01T03:24:33;98883.83;;;1.28;80.95
76337;BME280;65157;50.082;18.178;2023-02-01T03:32:39;98885.88;;;1.17;80.97
76337;BME280;65157;50.082;18.178;2023-02-01T03:35:31;98891.27;;;1.14;80.83
76337;BME280;65157;50.082;18.178;2023-02-01T03:40:46;98898.04;;;1.17;80.08
76337;BME280;65157;50.082;18.178;2023-02-01T03:43:17;98897.98;;;1.21;79.47
76337;BME280;65157;50.082;18.178;2023-02-01T03:45:50;98893.91;;;1.28;78.48
76337;BME280;65157;50.082;18.178;2023-02-01T03:48:20;98889.92;;;1.43;77.08
76337;BME280;65157;50.082;18.178;2023-02-01T03:50:53;98888.71;;;1.57;76.97
76337;BME280;65157;50.082;18.178;2023-02-01T03:53:23;98888.77;;;1.67;76.35
76337;BME280;65157;50.082;18.178;2023-02-01T03:55:52;98887.59;;;1.78;75.80
76337;BME280;65157;50.082;18.178;2023-02-01T03:58:22;98889.71;;;1.88;75.66
76337;BME280;65157;50.082;18.178;2023-02-01T04:00:57;98892.42;;;1.94;74.65
76337;BME280;65157;50.082;18.178;2023-02-01T04:03:25;98889.00;;;2.01;74.14
76337;BME280;65157;50.082;18.178;2023-02-01T04:05:55;98889.45;;;2.06;73.89
76337;BME280;65157;50.082;18.178;2023-02-01T04:08:23;98889.08;;;2.09;73.34
76337;BME280;65157;50.082;18.178;2023-02-01T04:10:50;98886.42;;;2.11;73.05
76337;BME280;65157;50.082;18.178;2023-02-01T04:13:17;98886.05;;;2.14;72.74
76337;BME280;65157;50.082;18.178;2023-02-01T04:15:44;98889.66;;;2.16;72.65
76337;BME280;65157;50.082;18.178;2023-02-01T04:18:12;98888.80;;;2.17;73.05
76337;BME280;65157;50.082;18.178;2023-02-01T04:20:38;98889.70;;;2.14;73.19
76337;BME280;65157;50.082;18.178;2023-02-01T04:23:05;98900.66;;;2.14;72.33
76337;BME280;65157;50.082;18.178;2023-02-01T04:25:31;98895.61;;;2.14;72.23
76337;BME280;65157;50.082;18.178;2023-02-01T04:27:58;98885.05;;;2.10;72.13
76337;BME280;65157;50.082;18.178;2023-02-01T04:30:26;98891.80;;;2.13;71.97
76337;BME280;65157;50.082;18.178;2023-02-01T04:32:59;98892.13;;;2.14;71.77
76337;BME280;65157;50.082;18.178;2023-02-01T04:35:34;98886.74;;;2.13;72.19
76337;BME280;65157;50.082;18.178;2023-02-01T04:38:06;98893.40;;;2.11;72.25
76337;BME280;65157;50.082;18.178;2023-02-01T04:40:33;98893.96;;;2.09;72.37
76337;BME280;65157;50.082;18.178;2023-02-01T04:43:00;98892.58;;;2.07;72.41
76337;BME280;65157;50.082;18.178;2023-02-01T04:45:27;98896.06;;;2.06;72.69
76337;BME280;65157;50.082;18.178;2023-02-01T04:47:54;98898.88;;;2.05;72.96
76337;BME280;65157;50.082;18.178;2023-02-01T04:50:21;98900.63;;;2.05;73.07
76337;BME280;65157;50.082;18.178;2023-02-01T04:52:47;98902.71;;;2.04;73.64
76337;BME280;65157;50.082;18.178;2023-02-01T04:55:15;98897.33;;;2.03;73.82
76337;BME280;65157;50.082;18.178;2023-02-01T04:57:44;98890.39;;;2.01;73.40
76337;BME280;65157;50.082;18.178;2023-02-01T05:00:22;98889.70;;;2.00;73.83
76337;BME280;65157;50.082;18.178;2023-02-01T05:02:53;98897.02;;;2.00;73.99
76337;BME280;65157;50.082;18.178;2023-02-01T05:05:20;98891.82;;;1.99;73.89
76337;BME280;65157;50.082;18.178;2023-02-01T05:07:46;98895.45;;;2.00;73.73
76337;BME280;65157;50.082;18.178;2023-02-01T05:10:13;98890.09;;;1.99;73.57
76337;BME280;65157;50.082;18.178;2023-02-01T05:12:43;98888.31;;;2.01;73.65
76337;BME280;65157;50.082;18.178;2023-02-01T05:15:29;98890.91;;;2.02;73.52
76337;BME280;65157;50.082;18.178;2023-02-01T05:17:57;98890.70;;;2.04;73.74
76337;BME280;65157;50.082;18.178;2023-02-01T05:20:24;98890.37;;;2.04;73.77
76337;BME280;65157;50.082;18.178;2023-02-01T05:22:51;98890.89;;;2.04;74.04
76337;BME280;65157;50.082;18.178;2023-02-01T05:25:17;98890.95;;;1.99;74.08
76337;BME280;65157;50.082;18.178;2023-02-01T05:27:45;98893.27;;;1.95;74.00
76337;BME280;65157;50.082;18.178;2023-02-01T05:30:12;98891.39;;;1.92;74.16
76337;BME280;65157;50.082;18.178;2023-02-01T05:32:38;98885.36;;;1.88;74.23
76337;BME280;65157;50.082;18.178;2023-02-01T05:35:06;98884.17;;;1.86;74.19
76337;BME280;65157;50.082;18.178;2023-02-01T05:37:32;98886.47;;;1.83;74.16
76337;BME280;65157;50.082;18.178;2023-02-01T05:39:59;98887.89;;;1.82;74.37
76337;BME280;65157;50.082;18.178;2023-02-01T05:42:26;98884.10;;;1.78;74.20
76337;BME280;65157;50.082;18.178;2023-02-01T05:44:52;98881.16;;;1.77;74.42
76337;BME280;65157;50.082;18.178;2023-02-01T05:47:19;98877.14;;;1.77;73.98
76337;BME280;65157;50.082;18.178;2023-02-01T05:49:47;98878.18;;;1.78;73.98
76337;BME280;65157;50.082;18.178;2023-02-01T05:52:13;98878.85;;;1.80;73.76
76337;BME280;65157;50.082;18.178;2023-02-01T05:54:46;98876.40;;;1.81;73.79
76337;BME280;65157;50.082;18.178;2023-02-01T05:57:15;98874.27;;;1.85;73.52
76337;BME280;65157;50.082;18.178;2023-02-01T05:59:42;98877.69;;;1.89;73.59
76337;BME280;65157;50.082;18.178;2023-02-01T06:02:14;98872.77;;;1.92;73.35
76337;BME280;65157;50.082;18.178;2023-02-01T06:04:41;98868.73;;;1.95;73.69
76337;BME280;65157;50.082;18.178;2023-02-01T06:07:09;98864.02;;;1.96;73.33
76337;BME280;65157;50.082;18.178;2023-02-01T06:09:36;98867.98;;;1.99;73.49
76337;BME280;65157;50.082;18.178;2023-02-01T06:12:03;98865.54;;;2.00;73.38
76337;BME280;65157;50.082;18.178;2023-02-01T06:14:30;98861.20;;;1.99;73.47
76337;BME280;65157;50.082;18.178;2023-02-01T06:16:57;98860.32;;;1.99;73.52
76337;BME280;65157;50.082;18.178;2023-02-01T06:19:23;98863.81;;;1.99;73.56
76337;BME280;65157;50.082;18.178;2023-02-01T06:21:50;98864.83;;;2.00;73.59
76337;BME280;65157;50.082;18.178;2023-02-01T06:24:17;98865.88;;;2.00;73.61
76337;BME280;65157;50.082;18.178;2023-02-01T06:26:43;98867.61;;;2.00;73.84
76337;BME280;65157;50.082;18.178;2023-02-01T06:29:10;98868.34;;;1.98;74.06
76337;BME280;65157;50.082;18.178;2023-02-01T06:31:37;98865.59;;;1.96;74.42
76337;BME280;65157;50.082;18.178;2023-02-01T06:34:04;98861.63;;;1.93;75.02
76337;BME280;65157;50.082;18.178;2023-02-01T06:36:30;98863.22;;;1.91;75.62
76337;BME280;65157;50.082;18.178;2023-02-01T06:38:57;98860.98;;;1.90;75.64
76337;BME280;65157;50.082;18.178;2023-02-01T06:41:25;98855.23;;;1.89;76.20
76337;BME280;65157;50.082;18.178;2023-02-01T06:43:52;98852.80;;;1.89;76.59
76337;BME280;65157;50.082;18.178;2023-02-01T06:46:19;98853.01;;;1.87;76.98
76337;BME280;65157;50.082;18.178;2023-02-01T06:48:45;98854.05;;;1.88;76.75
76337;BME280;65157;50.082;18.178;2023-02-01T06:51:26;98854.57;;;1.88;77.03
76337;BME280;65157;50.082;18.178;2023-02-01T06:53:53;98854.58;;;1.87;77.30
76337;BME280;65157;50.082;18.178;2023-02-01T06:56:20;98859.45;;;1.87;77.28
76337;BME280;65157;50.082;18.178;2023-02-01T06:58:47;98859.97;;;1.86;77.33
76337;BME280;65157;50.082;18.178;2023-02-01T07:01:15;98856.70;;;1.85;77.54
76337;BME280;65157;50.082;18.178;2023-02-01T07:03:42;98857.05;;;1.85;77.40
76337;BME280;65157;50.082;18.178;2023-02-01T07:06:09;98856.17;;;1.85;77.37
76337;BME280;65157;50.082;18.178;2023-02-01T07:08:37;98854.44;;;1.85;77.56
76337;BME280;65157;50.082;18.178;2023-02-01T07:11:06;98852.01;;;1.84;77.53
76337;BME280;65157;50.082;18.178;2023-02-01T07:13:33;98850.09;;;1.85;77.59
76337;BME280;65157;50.082;18.178;2023-02-01T07:16:01;98847.11;;;1.85;77.40
76337;BME280;65157;50.082;18.178;2023-02-01T07:18:29;98850.05;;;1.87;77.49
76337;BME280;65157;50.082;18.178;2023-02-01T07:20:56;98851.23;;;1.89;77.43
76337;BME280;65157;50.082;18.178;2023-02-01T07:23:24;98852.24;;;1.91;77.44
76337;BME280;65157;50.082;18.178;2023-02-01T07:25:55;98847.52;;;1.93;77.24
76337;BME280;65157;50.082;18.178;2023-02-01T07:28:23;98839.36;;;1.92;77.23
76337;BME280;65157;50.082;18.178;2023-02-01T07:30:51;98850.58;;;1.99;77.03
76337;BME280;65157;50.082;18.178;2023-02-01T07:33:22;98850.55;;;2.00;77.01
76337;BME280;65157;50.082;18.178;2023-02-01T07:35:50;98846.88;;;2.02;77.08
76337;BME280;65157;50.082;18.178;2023-02-01T07:38:17;98843.89;;;2.03;77.05
76337;BME280;65157;50.082;18.178;2023-02-01T07:40:44;98840.06;;;2.04;77.09
76337;BME280;65157;50.082;18.178;2023-02-01T07:43:10;98842.27;;;2.07;76.83
76337;BME280;65157;50.082;18.178;2023-02-01T07:45:37;98841.38;;;2.09;76.73
76337;BME280;65157;50.082;18.178;2023-02-01T07:48:04;98845.34;;;2.11;76.64
76337;BME280;65157;50.082;18.178;2023-02-01T07:50:31;98844.27;;;2.14;76.52
76337;BME280;65157;50.082;18.178;2023-02-01T07:52:59;98838.98;;;2.18;76.39
76337;BME280;65157;50.082;18.178;2023-02-01T07:55:27;98835.43;;;2.21;76.04
76337;BME280;65157;50.082;18.178;2023-02-01T07:57:57;98833.99;;;2.24;75.95
76337;BME280;65157;50.082;18.178;2023-02-01T08:00:25;98834.80;;;2.29;75.89
76337;BME280;65157;50.082;18.178;2023-02-01T08:03:11;98833.17;;;2.33;75.72
76337;BME280;65157;50.082;18.178;2023-02-01T08:05:37;98831.02;;;2.37;75.81
76337;BME280;65157;50.082;18.178;2023-02-01T08:08:04;98828.68;;;2.42;75.43
76337;BME280;65157;50.082;18.178;2023-02-01T08:10:32;98830.88;;;2.46;75.42
76337;BME280;65157;50.082;18.178;2023-02-01T08:12:59;98830.97;;;2.50;75.39
76337;BME280;65157;50.082;18.178;2023-02-01T08:15:27;98836.14;;;2.54;75.80
76337;BME280;65157;50.082;18.178;2023-02-01T08:17:54;98834.02;;;2.56;75.45
76337;BME280;65157;50.082;18.178;2023-02-01T08:20:22;98835.89;;;2.59;75.62
76337;BME280;65157;50.082;18.178;2023-02-01T08:22:52;98832.86;;;2.62;75.63
76337;BME280;65157;50.082;18.178;2023-02-01T08:25:19;98835.08;;;2.65;75.41
76337;BME280;65157;50.082;18.178;2023-02-01T08:27:46;98828.76;;;2.68;75.58
76337;BME280;65157;50.082;18.178;2023-02-01T08:30:12;98829.40;;;2.70;75.38
76337;BME280;65157;50.082;18.178;2023-02-01T08:32:40;98832.13;;;2.74;75.05
76337;BME280;65157;50.082;18.178;2023-02-01T08:35:07;98829.60;;;2.79;75.30
76337;BME280;65157;50.082;18.178;2023-02-01T08:37:34;98830.20;;;2.84;74.71
76337;BME280;65157;50.082;18.178;2023-02-01T08:40:01;98833.23;;;2.90;74.72
76337;BME280;65157;50.082;18.178;2023-02-01T08:42:28;98828.98;;;2.94;74.17
76337;BME280;65157;50.082;18.178;2023-02-01T08:45:14;98832.69;;;3.02;74.39
76337;BME280;65157;50.082;18.178;2023-02-01T08:47:40;98832.95;;;3.06;74.02
76337;BME280;65157;50.082;18.178;2023-02-01T08:50:07;98834.63;;;3.09;74.28
76337;BME280;65157;50.082;18.178;2023-02-01T08:52:37;98831.78;;;3.11;74.10
76337;BME280;65157;50.082;18.178;2023-02-01T08:55:05;98834.55;;;3.13;73.76
76337;BME280;65157;50.082;18.178;2023-02-01T08:57:33;98826.13;;;3.16;74.19
76337;BME280;65157;50.082;18.178;2023-02-01T09:00:00;98822.23;;;3.19;73.90
76337;BME280;65157;50.082;18.178;2023-02-01T09:02:27;98818.31;;;3.22;74.11
76337;BME280;65157;50.082;18.178;2023-02-01T09:04:55;98821.89;;;3.27;74.27
76337;BME280;65157;50.082;18.178;2023-02-01T09:07:22;98822.85;;;3.31;73.93
76337;BME280;65157;50.082;18.178;2023-02-01T09:09:49;98814.58;;;3.35;73.87
76337;BME280;65157;50.082;18.178;2023-02-01T09:12:15;98815.88;;;3.40;73.82
76337;BME280;65157;50.082;18.178;2023-02-01T09:14:42;98819.27;;;3.45;73.99
76337;BME280;65157;50.082;18.178;2023-02-01T09:17:08;98813.27;;;3.48;74.23
76337;BME280;65157;50.082;18.178;2023-02-01T09:19:35;98811.91;;;3.54;74.04
76337;BME280;65157;50.082;18.178;2023-02-01T09:22:02;98803.30;;;3.58;73.84
76337;BME280;65157;50.082;18.178;2023-02-01T09:24:28;98804.77;;;3.62;73.80
76337;BME280;65157;50.082;18.178;2023-02-01T09:26:55;98802.42;;;3.65;73.61
76337;BME280;65157;50.082;18.178;2023-02-01T09:29:22;98800.61;;;3.68;73.88
76337;BME280;65157;50.082;18.178;2023-02-01T09:31:48;98798.85;;;3.70;73.87
76337;BME280;65157;50.082;18.178;2023-02-01T09:34:15;98793.56;;;3.71;73.66
76337;BME280;65157;50.082;18.178;2023-02-01T09:36:41;98795.79;;;3.74;73.78
76337;BME280;65157;50.082;18.178;2023-02-01T09:39:08;98792.75;;;3.76;73.71
76337;BME280;65157;50.082;18.178;2023-02-01T09:46:41;98790.02;;;3.83;73.19
76337;BME280;65157;50.082;18.178;2023-02-01T09:49:26;98792.39;;;3.85;73.48
76337;BME280;65157;50.082;18.178;2023-02-01T09:51:55;98784.13;;;3.87;73.92
76337;BME280;65157;50.082;18.178;2023-02-01T09:55:01;98783.30;;;3.93;73.87
76337;BME280;65157;50.082;18.178;2023-02-01T09:57:24;98786.31;;;3.98;73.81
76337;BME280;65157;50.082;18.178;2023-02-01T09:59:59;98782.21;;;4.02;73.46
76337;BME280;65157;50.082;18.178;2023-02-01T10:02:28;98781.59;;;4.07;73.56
76337;BME280;65157;50.082;18.178;2023-02-01T10:05:00;98777.66;;;4.10;73.53
76337;BME280;65157;50.082;18.178;2023-02-01T10:07:43;98776.02;;;4.13;73.16
76337;BME280;65157;50.082;18.178;2023-02-01T10:13:31;98769.83;;;4.16;72.68
76337;BME280;65157;50.082;18.178;2023-02-01T10:16:16;98764.09;;;4.15;72.65
76337;BME280;65157;50.082;18.178;2023-02-01T10:19:16;98762.85;;;4.16;72.55
76337;BME280;65157;50.082;18.178;2023-02-01T10:22:00;98760.77;;;4.15;72.82
76337;BME280;65157;50.082;18.178;2023-02-01T10:27:06;98758.80;;;4.17;72.78
76337;BME280;65157;50.082;18.178;2023-02-01T10:29:44;98752.48;;;4.19;73.01
76337;BME280;65157;50.082;18.178;2023-02-01T10:32:24;98750.64;;;4.22;73.01
76337;BME280;65157;50.082;18.178;2023-02-01T10:35:11;98746.23;;;4.24;72.86
76337;BME280;65157;50.082;18.178;2023-02-01T10:37:41;98752.52;;;4.23;72.86
76337;BME280;65157;50.082;18.178;2023-02-01T10:40:17;98752.92;;;4.22;73.01
76337;BME280;65157;50.082;18.178;2023-02-01T10:42:46;98754.53;;;4.20;73.19
76337;BME280;65157;50.082;18.178;2023-02-01T10:45:16;98751.39;;;4.20;73.31
76337;BME280;65157;50.082;18.178;2023-02-01T10:47:44;98752.28;;;4.20;73.04
76337;BME280;65157;50.082;18.178;2023-02-01T10:52:59;98749.84;;;4.19;73.59
76337;BME280;65157;50.082;18.178;2023-02-01T10:58:28;98749.67;;;4.19;73.49
76337;BME280;65157;50.082;18.178;2023-02-01T11:01:08;98744.66;;;4.17;73.41
76337;BME280;65157;50.082;18.178;2023-02-01T11:08:53;98739.05;;;4.18;73.64
76337;BME280;65157;50.082;18.178;2023-02-01T11:11:21;98735.80;;;4.22;73.69
76337;BME280;65157;50.082;18.178;2023-02-01T11:13:56;98733.95;;;4.26;74.10
76337;BME280;65157;50.082;18.178;2023-02-01T11:16:30;98729.30;;;4.30;73.64
76337;BME280;65157;50.082;18.178;2023-02-01T11:18:59;98728.62;;;4.36;73.82
76337;BME280;65157;50.082;18.178;2023-02-01T11:21:25;98729.88;;;4.42;73.83
76337;BME280;65157;50.082;18.178;2023-02-01T11:23:52;98727.12;;;4.47;73.54
76337;BME280;65157;50.082;18.178;2023-02-01T11:26:24;98724.09;;;4.49;73.45
76337;BME280;65157;50.082;18.178;2023-02-01T11:29:04;98724.00;;;4.52;73.57
76337;BME280;65157;50.082;18.178;2023-02-01T11:31:35;98723.44;;;4.54;73.52
76337;BME280;65157;50.082;18.178;2023-02-01T11:34:18;98716.21;;;4.56;73.55
76337;BME280;65157;50.082;18.178;2023-02-01T11:36:48;98715.79;;;4.58;73.37
76337;BME280;65157;50.082;18.178;2023-02-01T11:39:34;98716.83;;;4.59;72.82
76337;BME280;65157;50.082;18.178;2023-02-01T11:42:17;98710.00;;;4.59;73.07
76337;BME280;65157;50.082;18.178;2023-02-01T11:44:45;98705.11;;;4.60;72.92
76337;BME280;65157;50.082;18.178;2023-02-01T11:47:39;98703.16;;;4.61;73.26
76337;BME280;65157;50.082;18.178;2023-02-01T11:56:25;98695.59;;;4.63;72.47
76337;BME280;65157;50.082;18.178;2023-02-01T12:04:40;98686.20;;;4.61;72.46
76337;BME280;65157;50.082;18.178;2023-02-01T12:10:31;98681.61;;;4.56;72.71
76337;BME280;65157;50.082;18.178;2023-02-01T12:15:53;98669.44;;;4.54;72.94
76337;BME280;65157;50.082;18.178;2023-02-01T12:29:21;98656.40;;;4.51;72.83
76337;BME280;65157;50.082;18.178;2023-02-01T12:34:52;98652.13;;;4.54;73.06
76337;BME280;65157;50.082;18.178;2023-02-01T12:46:13;98629.98;;;4.58;73.08
76337;BME280;65157;50.082;18.178;2023-02-01T12:48:56;98628.61;;;4.64;73.34
76337;BME280;65157;50.082;18.178;2023-02-01T12:51:36;98624.30;;;4.74;73.34
76337;BME280;65157;50.082;18.178;2023-02-01T12:54:12;98618.39;;;4.85;73.34
76337;BME280;65157;50.082;18.178;2023-02-01T12:56:46;98615.65;;;4.94;72.90
76337;BME280;65157;50.082;18.178;2023-02-01T13:01:54;98609.82;;;4.91;72.07
76337;BME280;65157;50.082;18.178;2023-02-01T13:04:33;98614.18;;;4.85;72.21
76337;BME280;65157;50.082;18.178;2023-02-01T13:07:14;98616.70;;;4.77;72.15
76337;BME280;65157;50.082;18.178;2023-02-01T13:09:53;98621.63;;;4.70;72.43
76337;BME280;65157;50.082;18.178;2023-02-01T13:12:28;98616.41;;;4.63;73.20
76337;BME280;65157;50.082;18.178;2023-02-01T13:15:24;98613.23;;;4.58;73.85
76337;BME280;65157;50.082;18.178;2023-02-01T13:17:55;98622.10;;;4.53;74.16
76337;BME280;65157;50.082;18.178;2023-02-01T13:20:35;98623.27;;;4.48;74.16
76337;BME280;65157;50.082;18.178;2023-02-01T13:23:13;98622.94;;;4.42;73.97
76337;BME280;65157;50.082;18.178;2023-02-01T13:25:51;98629.07;;;4.35;74.54
76337;BME280;65157;50.082;18.178;2023-02-01T13:28:29;98636.58;;;4.29;74.80
76337;BME280;65157;50.082;18.178;2023-02-01T13:34:32;98638.61;;;4.12;76.32
76337;BME280;65157;50.082;18.178;2023-02-01T13:40:33;98651.73;;;3.90;77.42
76337;BME280;65157;50.082;18.178;2023-02-01T13:42:57;98655.55;;;3.77;78.33
76337;BME280;65157;50.082;18.178;2023-02-01T13:45:27;98662.08;;;3.67;78.31
76337;BME280;65157;50.082;18.178;2023-02-01T13:47:58;98666.65;;;3.59;78.98
76337;BME280;65157;50.082;18.178;2023-02-01T13:50:30;98666.40;;;3.47;79.56
76337;BME280;65157;50.082;18.178;2023-02-01T13:53:26;98666.23;;;3.39;79.63
76337;BME280;65157;50.082;18.178;2023-02-01T13:56:00;98658.19;;;3.32;79.83
76337;BME280;65157;50.082;18.178;2023-02-01T13:58:34;98661.37;;;3.30;80.42
76337;BME280;65157;50.082;18.178;2023-02-01T14:03:58;98653.70;;;3.23;80.34
76337;BME280;65157;50.082;18.178;2023-02-01T14:11:49;98637.33;;;3.22;80.74
76337;BME280;65157;50.082;18.178;2023-02-01T14:19:37;98641.27;;;3.40;80.98
76337;BME280;65157;50.082;18.178;2023-02-01T14:24:55;98649.73;;;3.43;80.98
76337;BME280;65157;50.082;18.178;2023-02-01T14:27:28;98642.88;;;3.46;81.04
76337;BME280;65157;50.082;18.178;2023-02-01T14:29:59;98650.67;;;3.48;81.36
76337;BME280;65157;50.082;18.178;2023-02-01T14:32:39;98653.43;;;3.49;81.26
76337;BME280;65157;50.082;18.178;2023-02-01T14:35:27;98649.76;;;3.50;81.55
76337;BME280;65157;50.082;18.178;2023-02-01T14:37:59;98648.02;;;3.51;81.02
76337;BME280;65157;50.082;18.178;2023-02-01T14:40:29;98645.89;;;3.51;80.97
76337;BME280;65157;50.082;18.178;2023-02-01T14:42:57;98646.77;;;3.51;81.24
76337;BME280;65157;50.082;18.178;2023-02-01T14:50:31;98657.48;;;3.48;81.01
76337;BME280;65157;50.082;18.178;2023-02-01T14:55:44;98666.23;;;3.47;81.19
76337;BME280;65157;50.082;18.178;2023-02-01T15:00:53;98670.71;;;3.49;80.73
76337;BME280;65157;50.082;18.178;2023-02-01T15:14:24;98686.13;;;3.54;77.46
76337;BME280;65157;50.082;18.178;2023-02-01T15:16:51;98679.85;;;3.62;76.81
76337;BME280;65157;50.082;18.178;2023-02-01T15:19:26;98673.40;;;3.68;75.14
76337;BME280;65157;50.082;18.178;2023-02-01T15:21:55;98679.52;;;3.75;74.27
76337;BME280;65157;50.082;18.178;2023-02-01T15:24:25;98678.41;;;3.77;73.62
76337;BME280;65157;50.082;18.178;2023-02-01T15:26:53;98671.82;;;3.76;73.49
76337;BME280;65157;50.082;18.178;2023-02-01T15:29:22;98679.04;;;3.80;73.29
76337;BME280;65157;50.082;18.178;2023-02-01T15:31:54;98681.85;;;3.79;73.65
76337;BME280;65157;50.082;18.178;2023-02-01T15:34:20;98678.61;;;3.77;73.50
76337;BME280;65157;50.082;18.178;2023-02-01T15:36:47;98673.08;;;3.75;73.11
76337;BME280;65157;50.082;18.178;2023-02-01T15:39:23;98673.50;;;3.71;72.57
76337;BME280;65157;50.082;18.178;2023-02-01T15:42:12;98680.02;;;3.69;72.79
76337;BME280;65157;50.082;18.178;2023-02-01T15:44:44;98682.58;;;3.64;73.31
76337;BME280;65157;50.082;18.178;2023-02-01T15:47:18;98685.48;;;3.59;73.19